sensor_id;sensor_type;location;lat;lon;timestamp;P1;durP1;ratioP1;P2;durP2;ratioP2
20941;SDS011;10630;53.734;10.282;2022-07-29T00:01:21;3.80;;;1.50;;
20941;SDS011;10630;53.734;10.282;2022-07-29T00:03:51;2.63;;;1.40;;
20941;SDS011;10630;53.734;10.282;2022-07-29T00:06:28;2.75;;;1.50;;
20941;SDS011;10630;53.734;10.282;2022-07-29T00:09:01;3.53;;;1.88;;
20941;SDS011;10630;53.734;10.282;2022-07-29T00:11:32;5.90;;;1.77;;
20941;SDS011;10630;53.734;10.282;2022-07-29T00:14:23;5.80;;;1.80;;
20941;SDS011;10630;53.734;10.282;2022-07-29T00:16:53;5.68;;;1.98;;
20941;SDS011;10630;53.734;10.282;2022-07-29T00:19:25;8.57;;;2.22;;
20941;SDS011;10630;53.734;10.282;2022-07-29T00:22:00;8.18;;;1.60;;
20941;SDS011;10630;53.734;10.282;2022-07-29T00:24:49;2.30;;;1.40;;
20941;SDS011;10630;53.734;10.282;2022-07-29T00:27:17;3.20;;;1.63;;
20941;SDS011;10630;53.734;10.282;2022-07-29T00:29:44;4.18;;;1.95;;
20941;SDS011;10630;53.734;10.282;2022-07-29T00:32:19;4.57;;;1.30;;
20941;SDS011;10630;53.734;10.282;2022-07-29T00:34:49;3.95;;;1.60;;
20941;SDS011;10630;53.734;10.282;2022-07-29T00:37:38;4.35;;;1.50;;
20941;SDS011;10630;53.734;10.282;2022-07-29T00:40:09;2.17;;;1.17;;
20941;SDS011;10630;53.734;10.282;2022-07-29T00:42:50;4.60;;;2.17;;
20941;SDS011;10630;53.734;10.282;2022-07-29T00:45:23;6.93;;;1.98;;
20941;SDS011;10630;53.734;10.282;2022-07-29T00:47:53;3.35;;;1.92;;
20941;SDS011;10630;53.734;10.282;2022-07-29T00:50:27;2.80;;;1.70;;
20941;SDS011;10630;53.734;10.282;2022-07-29T00:52:59;2.63;;;1.77;;
20941;SDS011;10630;53.734;10.282;2022-07-29T00:55:27;2.25;;;1.52;;
20941;SDS011;10630;53.734;10.282;2022-07-29T00:57:55;3.08;;;1.30;;
20941;SDS011;10630;53.734;10.282;2022-07-29T01:00:25;3.60;;;1.75;;
20941;SDS011;10630;53.734;10.282;2022-07-29T01:02:58;3.03;;;1.70;;
20941;SDS011;10630;53.734;10.282;2022-07-29T01:05:30;3.83;;;1.73;;
20941;SDS011;10630;53.734;10.282;2022-07-29T01:08:30;3.28;;;1.73;;
20941;SDS011;10630;53.734;10.282;2022-07-29T01:11:02;2.97;;;2.10;;
20941;SDS011;10630;53.734;10.282;2022-07-29T01:13:33;3.35;;;2.13;;
20941;SDS011;10630;53.734;10.282;2022-07-29T01:16:13;3.85;;;2.03;;
20941;SDS011;10630;53.734;10.282;2022-07-29T01:19:06;4.55;;;2.20;;
20941;SDS011;10630;53.734;10.282;2022-07-29T01:22:02;3.10;;;1.83;;
20941;SDS011;10630;53.734;10.282;2022-07-29T01:31:13;4.32;;;2.20;;
20941;SDS011;10630;53.734;10.282;2022-07-29T01:34:02;4.03;;;2.00;;
20941;SDS011;10630;53.734;10.282;2022-07-29T01:36:36;8.80;;;2.83;;
20941;SDS011;10630;53.734;10.282;2022-07-29T01:39:10;4.28;;;2.50;;
20941;SDS011;10630;53.734;10.282;2022-07-29T01:41:56;5.57;;;2.40;;
20941;SDS011;10630;53.734;10.282;2022-07-29T01:48:47;4.90;;;2.35;;
20941;SDS011;10630;53.734;10.282;2022-07-29T01:51:23;6.45;;;3.22;;
20941;SDS011;10630;53.734;10.282;2022-07-29T01:54:04;4.30;;;2.35;;
20941;SDS011;10630;53.734;10.282;2022-07-29T01:57:23;5.20;;;2.10;;
20941;SDS011;10630;53.734;10.282;2022-07-29T02:00:03;5.80;;;2.92;;
20941;SDS011;10630;53.734;10.282;2022-07-29T02:02:44;7.90;;;2.90;;
20941;SDS011;10630;53.734;10.282;2022-07-29T02:05:18;4.37;;;2.40;;
20941;SDS011;10630;53.734;10.282;2022-07-29T02:07:48;4.68;;;2.65;;
20941;SDS011;10630;53.734;10.282;2022-07-29T02:10:24;4.78;;;3.00;;
20941;SDS011;10630;53.734;10.282;2022-07-29T02:12:57;4.80;;;2.80;;
20941;SDS011;10630;53.734;10.282;2022-07-29T02:15:30;6.70;;;4.13;;
20941;SDS011;10630;53.734;10.282;2022-07-29T02:18:13;9.35;;;4.00;;
20941;SDS011;10630;53.734;10.282;2022-07-29T02:20:46;5.93;;;3.03;;
20941;SDS011;10630;53.734;10.282;2022-07-29T02:23:20;7.57;;;3.47;;
20941;SDS011;10630;53.734;10.282;2022-07-29T02:26:19;5.15;;;3.70;;
20941;SDS011;10630;53.734;10.282;2022-07-29T02:28:54;7.15;;;3.88;;
20941;SDS011;10630;53.734;10.282;2022-07-29T02:31:30;7.68;;;3.92;;
20941;SDS011;10630;53.734;10.282;2022-07-29T02:34:03;6.95;;;3.95;;
20941;SDS011;10630;53.734;10.282;2022-07-29T02:36:37;6.95;;;3.83;;
20941;SDS011;10630;53.734;10.282;2022-07-29T02:39:17;4.15;;;3.15;;
20941;SDS011;10630;53.734;10.282;2022-07-29T02:41:48;8.57;;;3.60;;
20941;SDS011;10630;53.734;10.282;2022-07-29T02:44:19;7.28;;;3.88;;
20941;SDS011;10630;53.734;10.282;2022-07-29T02:46:49;7.28;;;3.70;;
20941;SDS011;10630;53.734;10.282;2022-07-29T02:52:12;8.25;;;4.05;;
20941;SDS011;10630;53.734;10.282;2022-07-29T02:58:09;5.95;;;3.90;;
20941;SDS011;10630;53.734;10.282;2022-07-29T03:00:46;6.82;;;3.78;;
20941;SDS011;10630;53.734;10.282;2022-07-29T03:03:19;13.00;;;4.22;;
20941;SDS011;10630;53.734;10.282;2022-07-29T03:05:49;6.78;;;3.92;;
20941;SDS011;10630;53.734;10.282;2022-07-29T03:08:24;7.65;;;4.15;;
20941;SDS011;10630;53.734;10.282;2022-07-29T03:10:58;5.68;;;3.58;;
20941;SDS011;10630;53.734;10.282;2022-07-29T03:13:27;6.25;;;3.97;;
20941;SDS011;10630;53.734;10.282;2022-07-29T03:15:59;7.18;;;3.47;;
20941;SDS011;10630;53.734;10.282;2022-07-29T03:18:29;8.85;;;4.40;;
20941;SDS011;10630;53.734;10.282;2022-07-29T03:21:11;7.85;;;4.10;;
20941;SDS011;10630;53.734;10.282;2022-07-29T03:23:47;6.47;;;3.70;;
20941;SDS011;10630;53.734;10.282;2022-07-29T03:26:17;7.18;;;3.63;;
20941;SDS011;10630;53.734;10.282;2022-07-29T03:28:54;7.10;;;3.47;;
20941;SDS011;10630;53.734;10.282;2022-07-29T03:31:23;8.93;;;3.55;;
20941;SDS011;10630;53.734;10.282;2022-07-29T03:36:43;7.07;;;3.63;;
20941;SDS011;10630;53.734;10.282;2022-07-29T03:39:15;7.97;;;3.25;;
20941;SDS011;10630;53.734;10.282;2022-07-29T03:41:50;7.65;;;3.75;;
20941;SDS011;10630;53.734;10.282;2022-07-29T03:44:24;6.70;;;3.78;;
20941;SDS011;10630;53.734;10.282;2022-07-29T03:46:55;8.13;;;4.03;;
20941;SDS011;10630;53.734;10.282;2022-07-29T03:49:26;7.07;;;3.78;;
20941;SDS011;10630;53.734;10.282;2022-07-29T03:52:06;8.13;;;3.83;;
20941;SDS011;10630;53.734;10.282;2022-07-29T03:54:49;5.80;;;4.25;;
20941;SDS011;10630;53.734;10.282;2022-07-29T03:57:18;7.53;;;3.75;;
20941;SDS011;10630;53.734;10.282;2022-07-29T03:59:51;5.55;;;3.58;;
20941;SDS011;10630;53.734;10.282;2022-07-29T04:02:24;7.35;;;3.03;;
20941;SDS011;10630;53.734;10.282;2022-07-29T04:05:11;8.00;;;4.00;;
20941;SDS011;10630;53.734;10.282;2022-07-29T04:07:48;9.07;;;4.72;;
20941;SDS011;10630;53.734;10.282;2022-07-29T04:10:19;6.82;;;3.45;;
20941;SDS011;10630;53.734;10.282;2022-07-29T04:13:02;6.40;;;3.38;;
20941;SDS011;10630;53.734;10.282;2022-07-29T04:15:36;8.10;;;3.70;;
20941;SDS011;10630;53.734;10.282;2022-07-29T04:18:06;6.30;;;3.65;;
20941;SDS011;10630;53.734;10.282;2022-07-29T04:20:39;8.07;;;3.70;;
20941;SDS011;10630;53.734;10.282;2022-07-29T04:23:18;4.28;;;3.17;;
20941;SDS011;10630;53.734;10.282;2022-07-29T04:25:48;6.78;;;3.85;;
20941;SDS011;10630;53.734;10.282;2022-07-29T04:28:15;10.55;;;3.97;;
20941;SDS011;10630;53.734;10.282;2022-07-29T04:30:48;7.32;;;3.95;;
20941;SDS011;10630;53.734;10.282;2022-07-29T04:33:41;7.65;;;3.40;;
20941;SDS011;10630;53.734;10.282;2022-07-29T04:38:58;6.75;;;3.75;;
20941;SDS011;10630;53.734;10.282;2022-07-29T04:41:29;8.90;;;4.15;;
20941;SDS011;10630;53.734;10.282;2022-07-29T04:44:04;6.72;;;3.45;;
20941;SDS011;10630;53.734;10.282;2022-07-29T04:46:36;7.85;;;3.70;;
20941;SDS011;10630;53.734;10.282;2022-07-29T04:49:28;5.80;;;3.58;;
20941;SDS011;10630;53.734;10.282;2022-07-29T04:51:59;7.60;;;4.10;;
20941;SDS011;10630;53.734;10.282;2022-07-29T04:54:32;10.45;;;4.15;;
20941;SDS011;10630;53.734;10.282;2022-07-29T04:57:03;6.95;;;3.60;;
20941;SDS011;10630;53.734;10.282;2022-07-29T04:59:44;10.60;;;4.07;;
20941;SDS011;10630;53.734;10.282;2022-07-29T05:02:13;6.85;;;3.83;;
20941;SDS011;10630;53.734;10.282;2022-07-29T05:04:53;7.60;;;4.07;;
20941;SDS011;10630;53.734;10.282;2022-07-29T05:07:26;9.65;;;4.03;;
20941;SDS011;10630;53.734;10.282;2022-07-29T05:09:59;7.72;;;3.70;;
20941;SDS011;10630;53.734;10.282;2022-07-29T05:12:26;7.60;;;4.05;;
20941;SDS011;10630;53.734;10.282;2022-07-29T05:14:57;7.03;;;3.80;;
20941;SDS011;10630;53.734;10.282;2022-07-29T05:17:27;6.43;;;4.10;;
20941;SDS011;10630;53.734;10.282;2022-07-29T05:19:57;8.48;;;4.18;;
20941;SDS011;10630;53.734;10.282;2022-07-29T05:22:36;8.02;;;4.22;;
20941;SDS011;10630;53.734;10.282;2022-07-29T05:25:04;9.85;;;3.92;;
20941;SDS011;10630;53.734;10.282;2022-07-29T05:27:36;8.25;;;3.63;;
20941;SDS011;10630;53.734;10.282;2022-07-29T05:30:09;8.70;;;4.20;;
20941;SDS011;10630;53.734;10.282;2022-07-29T05:32:44;9.75;;;3.65;;
20941;SDS011;10630;53.734;10.282;2022-07-29T05:35:17;7.70;;;3.75;;
20941;SDS011;10630;53.734;10.282;2022-07-29T05:38:13;5.57;;;3.38;;
20941;SDS011;10630;53.734;10.282;2022-07-29T05:40:45;7.60;;;3.60;;
20941;SDS011;10630;53.734;10.282;2022-07-29T05:43:19;7.88;;;3.35;;
20941;SDS011;10630;53.734;10.282;2022-07-29T05:48:44;5.03;;;2.55;;
20941;SDS011;10630;53.734;10.282;2022-07-29T05:51:26;4.10;;;2.63;;
20941;SDS011;10630;53.734;10.282;2022-07-29T05:53:59;10.10;;;3.40;;
20941;SDS011;10630;53.734;10.282;2022-07-29T05:56:33;8.63;;;2.90;;
20941;SDS011;10630;53.734;10.282;2022-07-29T05:59:04;7.97;;;2.80;;
20941;SDS011;10630;53.734;10.282;2022-07-29T06:01:46;7.95;;;2.95;;
20941;SDS011;10630;53.734;10.282;2022-07-29T06:07:44;9.75;;;2.97;;
20941;SDS011;10630;53.734;10.282;2022-07-29T06:10:17;6.32;;;3.03;;
20941;SDS011;10630;53.734;10.282;2022-07-29T06:12:52;5.93;;;2.72;;
20941;SDS011;10630;53.734;10.282;2022-07-29T06:15:23;5.60;;;2.75;;
20941;SDS011;10630;53.734;10.282;2022-07-29T06:25:49;5.05;;;2.55;;
20941;SDS011;10630;53.734;10.282;2022-07-29T06:31:43;6.38;;;2.55;;
20941;SDS011;10630;53.734;10.282;2022-07-29T06:34:23;5.72;;;2.47;;
20941;SDS011;10630;53.734;10.282;2022-07-29T06:37:13;9.82;;;2.38;;
20941;SDS011;10630;53.734;10.282;2022-07-29T06:39:44;4.43;;;2.53;;
20941;SDS011;10630;53.734;10.282;2022-07-29T06:42:17;5.38;;;2.22;;
20941;SDS011;10630;53.734;10.282;2022-07-29T06:44:50;8.38;;;2.00;;
20941;SDS011;10630;53.734;10.282;2022-07-29T06:47:22;4.32;;;1.90;;
20941;SDS011;10630;53.734;10.282;2022-07-29T06:49:56;7.35;;;2.00;;
20941;SDS011;10630;53.734;10.282;2022-07-29T06:52:26;4.18;;;2.00;;
20941;SDS011;10630;53.734;10.282;2022-07-29T06:54:58;6.85;;;2.67;;
20941;SDS011;10630;53.734;10.282;2022-07-29T06:57:26;6.55;;;2.05;;
20941;SDS011;10630;53.734;10.282;2022-07-29T06:59:56;6.43;;;2.08;;
20941;SDS011;10630;53.734;10.282;2022-07-29T07:02:26;4.68;;;1.80;;
20941;SDS011;10630;53.734;10.282;2022-07-29T07:05:00;7.80;;;2.40;;
20941;SDS011;10630;53.734;10.282;2022-07-29T07:07:28;5.55;;;2.15;;
20941;SDS011;10630;53.734;10.282;2022-07-29T07:09:58;4.55;;;1.95;;
20941;SDS011;10630;53.734;10.282;2022-07-29T07:12:38;5.80;;;2.33;;
20941;SDS011;10630;53.734;10.282;2022-07-29T07:15:06;5.78;;;2.53;;
20941;SDS011;10630;53.734;10.282;2022-07-29T07:17:38;4.57;;;1.88;;
20941;SDS011;10630;53.734;10.282;2022-07-29T07:23:15;3.03;;;1.90;;
20941;SDS011;10630;53.734;10.282;2022-07-29T07:25:48;3.08;;;1.60;;
20941;SDS011;10630;53.734;10.282;2022-07-29T07:28:16;4.93;;;2.03;;
20941;SDS011;10630;53.734;10.282;2022-07-29T07:30:51;4.57;;;1.88;;
20941;SDS011;10630;53.734;10.282;2022-07-29T07:33:19;7.20;;;1.83;;
20941;SDS011;10630;53.734;10.282;2022-07-29T07:35:57;4.13;;;1.85;;
20941;SDS011;10630;53.734;10.282;2022-07-29T07:38:30;5.22;;;1.80;;
20941;SDS011;10630;53.734;10.282;2022-07-29T07:41:05;3.72;;;1.70;;
20941;SDS011;10630;53.734;10.282;2022-07-29T07:43:33;4.22;;;1.98;;
20941;SDS011;10630;53.734;10.282;2022-07-29T07:46:00;7.38;;;2.45;;
20941;SDS011;10630;53.734;10.282;2022-07-29T07:48:30;3.78;;;1.60;;
20941;SDS011;10630;53.734;10.282;2022-07-29T07:53:41;4.63;;;1.60;;
20941;SDS011;10630;53.734;10.282;2022-07-29T07:56:16;4.53;;;2.05;;
20941;SDS011;10630;53.734;10.282;2022-07-29T07:58:51;3.33;;;1.63;;
20941;SDS011;10630;53.734;10.282;2022-07-29T08:01:19;4.47;;;2.30;;
20941;SDS011;10630;53.734;10.282;2022-07-29T08:03:52;5.07;;;1.75;;
20941;SDS011;10630;53.734;10.282;2022-07-29T08:06:23;7.50;;;2.08;;
20941;SDS011;10630;53.734;10.282;2022-07-29T08:08:54;4.72;;;1.98;;
20941;SDS011;10630;53.734;10.282;2022-07-29T08:11:55;3.97;;;1.52;;
20941;SDS011;10630;53.734;10.282;2022-07-29T08:14:27;5.15;;;1.60;;
20941;SDS011;10630;53.734;10.282;2022-07-29T08:16:57;2.92;;;1.42;;
20941;SDS011;10630;53.734;10.282;2022-07-29T08:19:31;4.80;;;1.80;;
20941;SDS011;10630;53.734;10.282;2022-07-29T08:22:03;6.28;;;1.98;;
20941;SDS011;10630;53.734;10.282;2022-07-29T08:27:30;4.32;;;2.10;;
20941;SDS011;10630;53.734;10.282;2022-07-29T08:30:09;3.60;;;1.83;;
20941;SDS011;10630;53.734;10.282;2022-07-29T08:32:37;4.65;;;2.00;;
20941;SDS011;10630;53.734;10.282;2022-07-29T08:35:21;6.05;;;2.03;;
20941;SDS011;10630;53.734;10.282;2022-07-29T08:37:49;4.68;;;2.58;;
20941;SDS011;10630;53.734;10.282;2022-07-29T08:40:24;6.60;;;2.13;;
20941;SDS011;10630;53.734;10.282;2022-07-29T08:43:04;4.32;;;2.33;;
20941;SDS011;10630;53.734;10.282;2022-07-29T08:45:47;5.20;;;2.03;;
20941;SDS011;10630;53.734;10.282;2022-07-29T08:48:21;4.32;;;1.90;;
20941;SDS011;10630;53.734;10.282;2022-07-29T08:50:54;2.70;;;1.70;;
20941;SDS011;10630;53.734;10.282;2022-07-29T08:53:25;2.53;;;1.67;;
20941;SDS011;10630;53.734;10.282;2022-07-29T08:55:58;3.90;;;1.90;;
20941;SDS011;10630;53.734;10.282;2022-07-29T08:58:31;3.45;;;1.70;;
20941;SDS011;10630;53.734;10.282;2022-07-29T09:01:10;8.00;;;2.17;;
20941;SDS011;10630;53.734;10.282;2022-07-29T09:04:16;5.30;;;1.65;;
20941;SDS011;10630;53.734;10.282;2022-07-29T09:06:47;5.47;;;1.73;;
20941;SDS011;10630;53.734;10.282;2022-07-29T09:09:18;3.95;;;1.65;;
20941;SDS011;10630;53.734;10.282;2022-07-29T09:11:45;4.90;;;1.65;;
20941;SDS011;10630;53.734;10.282;2022-07-29T09:14:18;6.80;;;1.83;;
20941;SDS011;10630;53.734;10.282;2022-07-29T09:16:54;4.13;;;1.83;;
20941;SDS011;10630;53.734;10.282;2022-07-29T09:19:33;5.95;;;1.80;;
20941;SDS011;10630;53.734;10.282;2022-07-29T09:22:27;5.47;;;2.13;;
20941;SDS011;10630;53.734;10.282;2022-07-29T09:25:08;4.53;;;1.90;;
20941;SDS011;10630;53.734;10.282;2022-07-29T09:27:42;2.97;;;1.50;;
20941;SDS011;10630;53.734;10.282;2022-07-29T09:30:23;5.95;;;1.90;;
20941;SDS011;10630;53.734;10.282;2022-07-29T09:33:03;3.63;;;1.58;;
20941;SDS011;10630;53.734;10.282;2022-07-29T09:35:33;2.72;;;1.40;;
20941;SDS011;10630;53.734;10.282;2022-07-29T09:38:37;6.90;;;2.08;;
20941;SDS011;10630;53.734;10.282;2022-07-29T09:41:09;5.43;;;1.65;;
20941;SDS011;10630;53.734;10.282;2022-07-29T09:43:40;5.72;;;1.48;;
20941;SDS011;10630;53.734;10.282;2022-07-29T09:47:01;3.97;;;1.75;;
20941;SDS011;10630;53.734;10.282;2022-07-29T09:55:28;5.05;;;1.67;;
20941;SDS011;10630;53.734;10.282;2022-07-29T09:58:16;3.60;;;1.60;;
20941;SDS011;10630;53.734;10.282;2022-07-29T10:01:05;4.05;;;1.55;;
20941;SDS011;10630;53.734;10.282;2022-07-29T10:03:53;3.75;;;1.85;;
20941;SDS011;10630;53.734;10.282;2022-07-29T10:07:08;2.97;;;1.73;;
20941;SDS011;10630;53.734;10.282;2022-07-29T10:09:37;4.38;;;1.27;;
20941;SDS011;10630;53.734;10.282;2022-07-29T10:12:55;5.63;;;2.05;;
20941;SDS011;10630;53.734;10.282;2022-07-29T10:15:35;3.70;;;1.77;;
20941;SDS011;10630;53.734;10.282;2022-07-29T10:18:14;5.60;;;1.55;;
20941;SDS011;10630;53.734;10.282;2022-07-29T10:20:48;4.38;;;1.38;;
20941;SDS011;10630;53.734;10.282;2022-07-29T10:25:55;6.40;;;1.90;;
20941;SDS011;10630;53.734;10.282;2022-07-29T10:28:42;3.83;;;1.42;;
20941;SDS011;10630;53.734;10.282;2022-07-29T10:31:28;5.25;;;2.00;;
20941;SDS011;10630;53.734;10.282;2022-07-29T10:44:20;3.80;;;1.45;;
20941;SDS011;10630;53.734;10.282;2022-07-29T10:47:06;3.35;;;1.38;;
20941;SDS011;10630;53.734;10.282;2022-07-29T10:49:41;6.47;;;1.30;;
20941;SDS011;10630;53.734;10.282;2022-07-29T10:55:38;3.72;;;1.30;;
20941;SDS011;10630;53.734;10.282;2022-07-29T10:58:25;2.55;;;1.45;;
20941;SDS011;10630;53.734;10.282;2022-07-29T11:01:01;3.30;;;1.52;;
20941;SDS011;10630;53.734;10.282;2022-07-29T11:04:07;4.32;;;1.55;;
20941;SDS011;10630;53.734;10.282;2022-07-29T11:09:39;5.93;;;1.47;;
20941;SDS011;10630;53.734;10.282;2022-07-29T11:15:16;7.20;;;1.70;;
20941;SDS011;10630;53.734;10.282;2022-07-29T11:20:48;3.38;;;1.35;;
20941;SDS011;10630;53.734;10.282;2022-07-29T11:23:25;2.03;;;1.30;;
20941;SDS011;10630;53.734;10.282;2022-07-29T11:26:17;2.83;;;1.25;;
20941;SDS011;10630;53.734;10.282;2022-07-29T11:29:03;3.28;;;1.48;;
20941;SDS011;10630;53.734;10.282;2022-07-29T11:32:14;9.13;;;2.15;;
20941;SDS011;10630;53.734;10.282;2022-07-29T11:35:32;3.17;;;1.50;;
20941;SDS011;10630;53.734;10.282;2022-07-29T11:38:24;6.03;;;2.10;;
20941;SDS011;10630;53.734;10.282;2022-07-29T11:41:31;5.03;;;2.13;;
20941;SDS011;10630;53.734;10.282;2022-07-29T11:44:08;3.67;;;1.50;;
20941;SDS011;10630;53.734;10.282;2022-07-29T11:46:47;6.10;;;1.90;;
20941;SDS011;10630;53.734;10.282;2022-07-29T11:49:35;4.93;;;1.95;;
20941;SDS011;10630;53.734;10.282;2022-07-29T11:52:32;4.60;;;1.95;;
20941;SDS011;10630;53.734;10.282;2022-07-29T11:58:35;6.78;;;2.22;;
20941;SDS011;10630;53.734;10.282;2022-07-29T12:01:06;5.68;;;1.70;;
20941;SDS011;10630;53.734;10.282;2022-07-29T12:04:01;13.55;;;7.38;;
20941;SDS011;10630;53.734;10.282;2022-07-29T12:10:23;6.47;;;1.85;;
20941;SDS011;10630;53.734;10.282;2022-07-29T12:13:05;3.28;;;1.65;;
20941;SDS011;10630;53.734;10.282;2022-07-29T12:18:34;5.93;;;2.10;;
20941;SDS011;10630;53.734;10.282;2022-07-29T12:21:29;3.83;;;1.85;;
20941;SDS011;10630;53.734;10.282;2022-07-29T12:42:17;6.75;;;2.50;;
20941;SDS011;10630;53.734;10.282;2022-07-29T12:51:38;4.50;;;2.22;;
20941;SDS011;10630;53.734;10.282;2022-07-29T12:54:25;5.97;;;2.50;;
20941;SDS011;10630;53.734;10.282;2022-07-29T12:56:58;6.35;;;2.33;;
20941;SDS011;10630;53.734;10.282;2022-07-29T12:59:29;6.45;;;1.80;;
20941;SDS011;10630;53.734;10.282;2022-07-29T13:02:28;5.18;;;2.33;;
20941;SDS011;10630;53.734;10.282;2022-07-29T13:05:04;5.90;;;1.88;;
20941;SDS011;10630;53.734;10.282;2022-07-29T13:07:55;8.38;;;2.53;;
20941;SDS011;10630;53.734;10.282;2022-07-29T13:11:04;7.07;;;2.75;;
20941;SDS011;10630;53.734;10.282;2022-07-29T13:13:49;4.20;;;1.90;;
20941;SDS011;10630;53.734;10.282;2022-07-29T13:16:33;9.85;;;2.65;;
20941;SDS011;10630;53.734;10.282;2022-07-29T13:19:10;5.60;;;2.08;;
20941;SDS011;10630;53.734;10.282;2022-07-29T13:21:57;3.17;;;1.70;;
20941;SDS011;10630;53.734;10.282;2022-07-29T13:24:32;7.78;;;2.10;;
20941;SDS011;10630;53.734;10.282;2022-07-29T13:27:28;5.95;;;1.80;;
20941;SDS011;10630;53.734;10.282;2022-07-29T13:33:14;7.72;;;1.63;;
20941;SDS011;10630;53.734;10.282;2022-07-29T13:35:46;5.60;;;1.80;;
20941;SDS011;10630;53.734;10.282;2022-07-29T13:38:34;4.28;;;1.58;;
20941;SDS011;10630;53.734;10.282;2022-07-29T13:41:09;9.85;;;1.77;;
20941;SDS011;10630;53.734;10.282;2022-07-29T13:43:54;3.30;;;1.67;;
20941;SDS011;10630;53.734;10.282;2022-07-29T13:46:28;5.05;;;2.00;;
20941;SDS011;10630;53.734;10.282;2022-07-29T13:57:09;2.92;;;1.58;;
20941;SDS011;10630;53.734;10.282;2022-07-29T14:00:34;7.45;;;1.52;;
20941;SDS011;10630;53.734;10.282;2022-07-29T14:09:07;3.50;;;1.73;;
20941;SDS011;10630;53.734;10.282;2022-07-29T14:11:59;5.85;;;1.90;;
20941;SDS011;10630;53.734;10.282;2022-07-29T14:14:30;5.22;;;1.65;;
20941;SDS011;10630;53.734;10.282;2022-07-29T14:17:09;4.25;;;1.75;;
20941;SDS011;10630;53.734;10.282;2022-07-29T14:19:46;6.63;;;1.80;;
20941;SDS011;10630;53.734;10.282;2022-07-29T14:22:13;6.57;;;1.50;;
20941;SDS011;10630;53.734;10.282;2022-07-29T14:31:15;10.68;;;2.22;;
20941;SDS011;10630;53.734;10.282;2022-07-29T14:34:07;5.20;;;2.05;;
20941;SDS011;10630;53.734;10.282;2022-07-29T14:37:29;4.38;;;2.05;;
20941;SDS011;10630;53.734;10.282;2022-07-29T14:51:48;7.18;;;2.15;;
20941;SDS011;10630;53.734;10.282;2022-07-29T14:54:46;7.13;;;1.83;;
20941;SDS011;10630;53.734;10.282;2022-07-29T14:57:29;7.68;;;2.63;;
20941;SDS011;10630;53.734;10.282;2022-07-29T15:00:24;6.15;;;1.73;;
20941;SDS011;10630;53.734;10.282;2022-07-29T15:03:05;4.47;;;2.10;;
20941;SDS011;10630;53.734;10.282;2022-07-29T15:05:42;6.80;;;2.10;;
20941;SDS011;10630;53.734;10.282;2022-07-29T15:08:24;4.88;;;1.98;;
20941;SDS011;10630;53.734;10.282;2022-07-29T15:11:00;8.00;;;1.88;;
20941;SDS011;10630;53.734;10.282;2022-07-29T15:13:50;4.13;;;1.80;;
20941;SDS011;10630;53.734;10.282;2022-07-29T15:16:20;4.85;;;1.90;;
20941;SDS011;10630;53.734;10.282;2022-07-29T15:19:08;6.68;;;2.00;;
20941;SDS011;10630;53.734;10.282;2022-07-29T15:21:42;4.80;;;1.90;;
20941;SDS011;10630;53.734;10.282;2022-07-29T15:24:36;8.23;;;1.75;;
20941;SDS011;10630;53.734;10.282;2022-07-29T15:27:09;4.53;;;2.10;;
20941;SDS011;10630;53.734;10.282;2022-07-29T15:29:43;3.80;;;1.70;;
20941;SDS011;10630;53.734;10.282;2022-07-29T15:32:13;3.25;;;1.88;;
20941;SDS011;10630;53.734;10.282;2022-07-29T15:35:26;4.32;;;1.45;;
20941;SDS011;10630;53.734;10.282;2022-07-29T15:51:03;4.38;;;2.15;;
20941;SDS011;10630;53.734;10.282;2022-07-29T15:56:43;5.65;;;1.85;;
20941;SDS011;10630;53.734;10.282;2022-07-29T15:59:18;8.23;;;2.20;;
20941;SDS011;10630;53.734;10.282;2022-07-29T16:02:10;6.97;;;2.17;;
20941;SDS011;10630;53.734;10.282;2022-07-29T16:04:56;3.90;;;2.20;;
20941;SDS011;10630;53.734;10.282;2022-07-29T16:26:38;5.90;;;2.22;;
20941;SDS011;10630;53.734;10.282;2022-07-29T16:29:06;4.47;;;1.77;;
20941;SDS011;10630;53.734;10.282;2022-07-29T16:31:33;4.80;;;2.20;;
20941;SDS011;10630;53.734;10.282;2022-07-29T16:34:04;6.90;;;1.77;;
20941;SDS011;10630;53.734;10.282;2022-07-29T16:36:38;4.40;;;1.60;;
20941;SDS011;10630;53.734;10.282;2022-07-29T16:39:17;9.07;;;1.80;;
20941;SDS011;10630;53.734;10.282;2022-07-29T16:41:47;6.60;;;2.00;;
20941;SDS011;10630;53.734;10.282;2022-07-29T16:44:26;5.50;;;2.15;;
20941;SDS011;10630;53.734;10.282;2022-07-29T17:20:29;5.45;;;2.13;;
20941;SDS011;10630;53.734;10.282;2022-07-29T17:23:02;3.38;;;1.75;;
20941;SDS011;10630;53.734;10.282;2022-07-29T17:25:45;7.90;;;2.40;;
20941;SDS011;10630;53.734;10.282;2022-07-29T17:28:12;5.95;;;2.10;;
20941;SDS011;10630;53.734;10.282;2022-07-29T17:33:43;5.57;;;2.35;;
20941;SDS011;10630;53.734;10.282;2022-07-29T17:36:11;3.75;;;1.70;;
20941;SDS011;10630;53.734;10.282;2022-07-29T17:38:56;6.15;;;1.90;;
20941;SDS011;10630;53.734;10.282;2022-07-29T17:41:38;12.13;;;2.53;;
20941;SDS011;10630;53.734;10.282;2022-07-29T17:44:06;7.65;;;2.42;;
20941;SDS011;10630;53.734;10.282;2022-07-29T17:46:35;6.85;;;2.38;;
20941;SDS011;10630;53.734;10.282;2022-07-29T17:49:04;15.35;;;3.22;;
20941;SDS011;10630;53.734;10.282;2022-07-29T17:51:33;8.30;;;2.30;;
20941;SDS011;10630;53.734;10.282;2022-07-29T17:54:00;6.15;;;2.03;;
20941;SDS011;10630;53.734;10.282;2022-07-29T17:56:35;10.82;;;2.35;;
20941;SDS011;10630;53.734;10.282;2022-07-29T17:59:14;7.47;;;2.03;;
20941;SDS011;10630;53.734;10.282;2022-07-29T18:01:47;9.40;;;2.38;;
20941;SDS011;10630;53.734;10.282;2022-07-29T18:04:30;7.78;;;2.33;;
20941;SDS011;10630;53.734;10.282;2022-07-29T18:07:02;7.38;;;1.73;;
20941;SDS011;10630;53.734;10.282;2022-07-29T18:09:30;11.13;;;2.40;;
20941;SDS011;10630;53.734;10.282;2022-07-29T18:11:59;6.90;;;2.38;;
20941;SDS011;10630;53.734;10.282;2022-07-29T18:14:39;5.38;;;1.90;;
20941;SDS011;10630;53.734;10.282;2022-07-29T18:17:06;5.60;;;1.95;;
20941;SDS011;10630;53.734;10.282;2022-07-29T18:19:37;5.07;;;1.80;;
20941;SDS011;10630;53.734;10.282;2022-07-29T18:22:07;7.20;;;2.05;;
20941;SDS011;10630;53.734;10.282;2022-07-29T18:24:50;6.45;;;2.42;;
20941;SDS011;10630;53.734;10.282;2022-07-29T18:27:18;4.82;;;1.65;;
20941;SDS011;10630;53.734;10.282;2022-07-29T18:29:46;7.72;;;2.08;;
20941;SDS011;10630;53.734;10.282;2022-07-29T18:32:33;5.07;;;1.70;;
20941;SDS011;10630;53.734;10.282;2022-07-29T18:34:59;5.13;;;2.05;;
20941;SDS011;10630;53.734;10.282;2022-07-29T18:37:28;4.28;;;1.80;;
20941;SDS011;10630;53.734;10.282;2022-07-29T18:40:15;5.60;;;1.70;;
20941;SDS011;10630;53.734;10.282;2022-07-29T18:42:42;6.70;;;1.77;;
20941;SDS011;10630;53.734;10.282;2022-07-29T18:45:09;8.18;;;1.98;;
20941;SDS011;10630;53.734;10.282;2022-07-29T18:47:44;3.50;;;1.98;;
20941;SDS011;10630;53.734;10.282;2022-07-29T18:52:53;4.13;;;2.22;;
20941;SDS011;10630;53.734;10.282;2022-07-29T18:55:21;6.82;;;2.20;;
20941;SDS011;10630;53.734;10.282;2022-07-29T18:57:50;5.68;;;1.73;;
20941;SDS011;10630;53.734;10.282;2022-07-29T19:00:21;7.25;;;2.35;;
20941;SDS011;10630;53.734;10.282;2022-07-29T19:02:52;5.70;;;2.05;;
20941;SDS011;10630;53.734;10.282;2022-07-29T19:13:12;5.65;;;2.10;;
20941;SDS011;10630;53.734;10.282;2022-07-29T19:15:39;5.20;;;2.20;;
20941;SDS011;10630;53.734;10.282;2022-07-29T19:18:11;13.95;;;2.58;;
20941;SDS011;10630;53.734;10.282;2022-07-29T19:20:43;6.00;;;1.92;;
20941;SDS011;10630;53.734;10.282;2022-07-29T19:23:12;5.72;;;1.95;;
20941;SDS011;10630;53.734;10.282;2022-07-29T19:25:44;4.35;;;2.00;;